Blue Rock, Ohio
Current Conditions -  °F | °C
As of 9:31 AM on Tuesday 27 Jan 2015 (Local Time) from KZZV Reporting Station
Haze Haze  
Wind Chill:   Ceiling: 3000
Heat Index: 16°   Visibility: 3mi
Dew Point: 10°   Wind: 6mph
Humidity: 77%   Direction: 330°NNW
Pressure: 30"   Gusts: NA
Location:  39.8°N, 81.89°W
Report Text: KZZV 271431Z AUTO 33005KT 3SM HZ OVC030 M09/M12 A3000 RMK AO2 SNB1358E26 P0000 T10891122
Loading
Personal Weather Stations






























Interactive Weather Map New forecast layout! Learn more

10-Day Weather Forecast

Advertisements
Track Severe Weather on mobile